This is the latest recevied weather packets stored in our database for station/object IW1RID-3. If no packets are shown the sender has not sent any weather packets the latest 10 day(s).
| Time | Temp. | Humidity | Pressure | Rain* | Wind** | Luminosity | Snow |
|---|---|---|---|---|---|---|---|
| 1777686864 | 11.67° C | 60% | 1084.8 hPa | - | - | - | - |
| 1777685660 | 11.11° C | 63% | 1084.7 hPa | - | - | - | - |
| 1777684455 | 11.67° C | 62% | 1084.5 hPa | - | - | - | - |
| 1777683250 | 11.67° C | 63% | 1084.4 hPa | - | - | - | - |
| 1777682045 | 11.67° C | 65% | 1084.4 hPa | - | - | - | - |
| 1777680841 | 12.22° C | 62% | 1084.6 hPa | - | - | - | - |
| 1777679637 | 12.22° C | 63% | 1084.6 hPa | - | - | - | - |
| 1777678431 | 12.22° C | 68% | 1084.6 hPa | - | - | - | - |
| 1777677227 | 12.22° C | 68% | 1084.7 hPa | - | - | - | - |
| 1777676022 | 12.78° C | 68% | 1084.6 hPa | - | - | - | - |
| 1777674817 | 13.33° C | 69% | 1084.4 hPa | - | - | - | - |
| 1777673613 | 13.33° C | 71% | 1084.2 hPa | - | - | - | - |
| 1777672408 | 13.33° C | 70% | 1084.1 hPa | - | - | - | - |
| 1777671203 | 13.33° C | 73% | 1083.7 hPa | - | - | - | - |
| 1777669998 | 13.33° C | 74% | 1083.8 hPa | - | - | - | - |
| 1777668793 | 13.89° C | 74% | 1083.7 hPa | - | - | - | - |
| 1777667588 | 13.89° C | 73% | 1083.6 hPa | - | - | - | - |
| 1777666384 | 13.89° C | 73% | 1083.5 hPa | - | - | - | - |
| 1777665179 | 14.44° C | 71% | 1083.2 hPa | - | - | - | - |
| 1777663975 | 14.44° C | 70% | 1083 hPa | - | - | - | - |
| 1777662770 | 15.56° C | 66% | 1082.8 hPa | - | - | - | - |
| 1777661565 | 16.11° C | 62% | 1082.6 hPa | - | - | - | - |
| 1777660361 | 17.22° C | 59% | 1082.4 hPa | - | - | - | - |
| 1777659156 | 18.33° C | 55% | 1082.2 hPa | - | - | - | - |
| 1777657951 | 18.89° C | 52% | 1082 hPa | - | - | - | - |
* Rain since midnight (hover to see other rain measurements)
** Current wind speed in m/s (hover to see current wind gust speed)